createdAt,value
2023-03-12T08:41:56.761Z,7.73
2023-03-12T08:47:02.129Z,7.20
2023-03-12T08:52:08.142Z,8.10
2023-03-12T08:57:16.327Z,5.10
2023-03-12T09:02:21.396Z,5.33
2023-03-12T09:07:26.728Z,7.37
2023-03-12T09:12:34.762Z,7.40
2023-03-12T09:17:39.973Z,8.60
2023-03-12T09:22:45.954Z,7.73
2023-03-12T09:27:53.791Z,8.27
2023-03-12T09:32:59.437Z,7.37
2023-03-12T09:38:04.892Z,6.67
2023-03-12T09:43:16.630Z,7.17
2023-03-12T09:48:24.741Z,9.73
2023-03-12T09:53:31.941Z,9.43
2023-03-12T09:58:40.816Z,9.40
2023-03-12T10:04:04.027Z,9.17
2023-03-12T10:09:26.451Z,8.60
2023-03-12T10:14:46.053Z,9.20
2023-03-12T10:20:09.311Z,7.77
2023-03-12T10:25:19.651Z,7.77
2023-03-12T10:30:29.398Z,5.60
2023-03-12T10:35:34.637Z,6.73
2023-03-12T10:40:39.977Z,8.37
2023-03-12T10:45:50.690Z,6.53
2023-03-12T10:51:05.916Z,8.67
2023-03-12T10:56:12.291Z,11.23
2023-03-12T11:01:24.841Z,8.00
2023-03-12T11:06:32.274Z,8.47
2023-03-12T11:11:38.475Z,6.00
2023-03-12T11:16:46.552Z,7.53
2023-03-12T11:21:59.023Z,8.63
2023-03-12T11:27:08.073Z,8.77
2023-03-12T11:32:20.231Z,12.67
2023-03-12T11:37:33.986Z,13.27
2023-03-12T11:42:51.747Z,11.13
2023-03-12T11:48:19.714Z,12.00
2023-03-12T11:53:56.522Z,14.43
2023-03-12T11:59:21.367Z,13.23
2023-03-12T12:04:56.600Z,13.13
2023-03-12T12:10:05.239Z,13.80
2023-03-12T12:15:20.796Z,13.80
2023-03-12T12:20:36.947Z,12.10
2023-03-12T12:25:52.879Z,12.03
2023-03-12T12:31:15.457Z,10.67
2023-03-12T12:36:23.210Z,11.20
2023-03-12T12:41:29.113Z,8.10
2023-03-12T12:46:36.477Z,10.23
2023-03-12T12:51:46.870Z,11.77
2023-03-12T12:56:54.260Z,12.37
2023-03-12T13:01:59.568Z,9.87
2023-03-12T13:07:34.814Z,11.97
2023-03-12T13:12:45.479Z,12.43
2023-03-12T13:18:12.137Z,13.47
2023-03-12T13:23:39.585Z,10.90
2023-03-12T13:29:11.830Z,12.67
2023-03-12T13:34:53.503Z,11.03
2023-03-12T13:40:10.680Z,16.70
2023-03-12T13:45:31.858Z,21.37
2023-03-12T13:50:38.512Z,11.10
2023-03-12T13:55:46.198Z,13.10
2023-03-12T14:00:56.612Z,19.13
2023-03-12T14:06:03.507Z,17.60
2023-03-12T14:11:24.693Z,13.17
2023-03-12T14:16:32.404Z,13.00
2023-03-12T14:21:40.047Z,17.83
2023-03-12T14:26:49.126Z,15.97
2023-03-12T14:31:54.318Z,12.17
2023-03-12T14:37:03.715Z,12.97
2023-03-12T14:42:12.029Z,17.13
2023-03-12T14:47:20.681Z,12.83
2023-03-12T14:52:27.089Z,13.40
2023-03-12T14:57:34.875Z,14.50
2023-03-12T15:02:41.285Z,13.13
2023-03-12T15:07:46.694Z,12.83
2023-03-12T15:12:54.842Z,12.37
2023-03-12T15:18:00.016Z,13.13
2023-03-12T15:23:05.351Z,19.47
2023-03-12T15:28:29.609Z,16.50
2023-03-12T15:33:34.861Z,15.73
2023-03-12T15:38:41.032Z,14.63
2023-03-12T15:43:49.724Z,19.03
2023-03-12T15:48:56.239Z,18.67
2023-03-12T15:54:06.535Z,19.83
2023-03-12T15:59:27.798Z,18.53
2023-03-12T16:04:32.996Z,19.50
2023-03-12T16:09:38.097Z,22.77
2023-03-12T16:14:51.558Z,18.67
2023-03-12T16:19:56.746Z,15.03
2023-03-12T16:25:01.972Z,18.80
2023-03-12T16:30:15.268Z,19.97
2023-03-12T16:35:21.601Z,21.03
2023-03-12T16:40:33.374Z,19.43
2023-03-12T16:45:41.675Z,20.27
2023-03-12T16:50:51.919Z,23.73
2023-03-12T16:55:58.693Z,17.73
2023-03-12T17:01:06.900Z,20.93
2023-03-12T17:06:17.809Z,23.77
2023-03-12T17:11:24.752Z,20.83
2023-03-12T17:16:32.841Z,17.37
2023-03-12T17:21:38.119Z,19.63
2023-03-12T17:26:43.397Z,23.57
2023-03-12T17:31:51.297Z,17.87
2023-03-12T17:36:56.449Z,19.03
2023-03-12T17:42:03.944Z,16.23
2023-03-12T17:47:11.739Z,17.63
2023-03-12T17:52:17.231Z,17.43
2023-03-12T17:57:23.198Z,20.87
2023-03-12T18:02:31.074Z,17.77
2023-03-12T18:07:36.296Z,19.10
2023-03-12T18:12:41.458Z,17.07
2023-03-12T18:17:52.416Z,21.17
2023-03-12T18:22:57.558Z,23.10
2023-03-12T18:28:02.875Z,22.07
2023-03-12T18:33:10.636Z,19.80
2023-03-12T18:38:15.928Z,24.10
2023-03-12T18:43:22.027Z,21.57
2023-03-12T18:48:29.901Z,18.87
2023-03-12T18:53:35.300Z,16.03
2023-03-12T18:58:40.578Z,21.13
2023-03-12T19:03:48.425Z,19.50
2023-03-12T19:08:54.120Z,22.50
2023-03-12T19:14:02.131Z,21.63
2023-03-12T19:19:12.900Z,16.23
2023-03-12T19:24:18.321Z,20.27
2023-03-12T19:29:23.561Z,18.73
2023-03-12T19:34:31.337Z,23.53
2023-03-12T19:39:36.520Z,23.43
2023-03-12T19:44:42.350Z,19.80
2023-03-12T19:49:50.138Z,16.43
2023-03-12T19:55:04.238Z,18.23
2023-03-12T20:00:12.854Z,16.37
2023-03-12T20:05:21.078Z,18.17
2023-03-12T20:10:27.843Z,14.83
2023-03-12T20:15:33.290Z,21.50
2023-03-12T20:20:41.050Z,18.57
2023-03-12T20:25:46.426Z,16.90
2023-03-12T20:30:51.705Z,20.37
2023-03-12T20:35:59.575Z,18.10
2023-03-12T20:41:05.064Z,19.00
2023-03-12T20:46:10.262Z,18.80
2023-03-12T20:51:18.128Z,15.13
2023-03-12T20:56:23.337Z,23.03
2023-03-12T21:01:28.693Z,17.20
2023-03-12T21:06:36.505Z,19.50
2023-03-12T21:11:41.777Z,16.63
2023-03-12T21:16:47.064Z,17.47
2023-03-12T21:21:54.865Z,20.70
2023-03-12T21:27:00.596Z,24.70
2023-03-12T21:32:05.799Z,22.80
2023-03-12T21:37:14.023Z,17.43
2023-03-12T21:42:19.121Z,18.40
2023-03-12T21:47:24.186Z,21.53
2023-03-12T21:52:33.644Z,22.30
2023-03-12T21:57:38.837Z,18.20
2023-03-12T22:02:44.107Z,21.43
2023-03-12T22:07:51.856Z,24.53
2023-03-12T22:12:57.177Z,22.47
2023-03-12T22:18:02.295Z,18.03
2023-03-12T22:23:09.989Z,21.17
2023-03-12T22:28:15.151Z,18.27
2023-03-12T22:33:20.214Z,16.03
2023-03-12T22:38:27.911Z,18.73
2023-03-12T22:43:32.966Z,19.50
2023-03-12T22:48:38.194Z,16.37
2023-03-12T22:53:46.096Z,14.67
